createdAt,value
2023-04-02T00:00:19.569Z,1.70
2023-04-02T00:02:56.456Z,1.30
2023-04-02T00:05:51.375Z,2.10
2023-04-02T00:08:27.321Z,1.83
2023-04-02T00:10:57.918Z,2.27
2023-04-02T00:13:34.129Z,2.00
2023-04-02T00:16:07.646Z,1.80
2023-04-02T00:18:41.806Z,1.50
2023-04-02T00:21:20.546Z,1.87
2023-04-02T00:23:48.624Z,2.27
2023-04-02T00:26:26.612Z,2.27
2023-04-02T00:28:54.649Z,1.53
2023-04-02T00:31:24.389Z,1.80
2023-04-02T00:33:53.553Z,2.00
2023-04-02T00:36:23.199Z,1.80
2023-04-02T00:38:51.546Z,2.30
2023-04-02T00:41:27.137Z,1.87
2023-04-02T00:43:57.764Z,1.53
2023-04-02T00:46:32.350Z,2.00
2023-04-02T00:49:09.018Z,1.50
2023-04-02T00:51:41.868Z,1.73
2023-04-02T00:54:15.749Z,1.57
2023-04-02T00:56:46.702Z,1.60
2023-04-02T00:59:23.898Z,1.90
2023-04-02T01:02:01.543Z,1.60
2023-04-02T01:04:36.526Z,1.30
2023-04-02T01:07:09.616Z,1.33
2023-04-02T01:10:00.320Z,1.70
2023-04-02T01:12:44.874Z,1.50
2023-04-02T01:15:19.496Z,1.27
2023-04-02T01:18:18.524Z,1.30
2023-04-02T01:21:23.024Z,1.50
2023-04-02T01:24:02.438Z,1.10
2023-04-02T01:26:51.246Z,1.40
2023-04-02T01:29:23.565Z,1.13
2023-04-02T01:31:54.893Z,1.37
2023-04-02T01:34:27.167Z,1.27
2023-04-02T01:37:27.895Z,1.00
2023-04-02T01:40:11.190Z,1.27
2023-04-02T01:42:48.190Z,1.17
2023-04-02T01:45:21.769Z,1.10
2023-04-02T01:47:51.294Z,1.50
2023-04-02T01:50:31.780Z,1.27
2023-04-02T01:53:03.396Z,1.20
2023-04-02T01:55:38.881Z,1.30
2023-04-02T01:58:07.572Z,1.93
2023-04-02T02:00:42.850Z,1.40
2023-04-02T02:03:13.869Z,1.23
2023-04-02T02:05:42.216Z,1.33
2023-04-02T02:08:35.691Z,1.20
2023-04-02T02:11:04.529Z,1.33
2023-04-02T02:13:33.526Z,1.40
2023-04-02T02:16:06.076Z,1.63
2023-04-02T02:18:34.619Z,1.37
2023-04-02T02:21:06.570Z,1.20
2023-04-02T02:23:35.017Z,1.43
2023-04-02T02:26:03.045Z,1.23
2023-04-02T02:28:34.602Z,1.07
2023-04-02T02:31:08.189Z,0.90
2023-04-02T02:33:42.264Z,1.13
2023-04-02T02:36:18.002Z,1.33
2023-04-02T02:38:54.376Z,1.10
2023-04-02T02:41:31.455Z,1.60
2023-04-02T02:44:06.008Z,1.10
2023-04-02T02:46:37.907Z,1.10
2023-04-02T02:49:07.378Z,1.57
2023-04-02T02:51:46.207Z,1.50
2023-04-02T02:54:18.516Z,0.90
2023-04-02T02:56:53.748Z,1.20
2023-04-02T02:59:22.752Z,1.30
2023-04-02T03:01:53.373Z,1.10
2023-04-02T03:04:23.762Z,1.20
2023-04-02T03:06:54.026Z,1.40
2023-04-02T03:09:33.353Z,1.70
2023-04-02T03:12:08.580Z,1.40
2023-04-02T03:14:41.391Z,1.40
2023-04-02T03:17:17.381Z,1.40
2023-04-02T03:19:49.716Z,1.10
2023-04-02T03:22:24.459Z,1.70
2023-04-02T03:25:00.735Z,1.50
2023-04-02T03:27:33.916Z,1.10
2023-04-02T03:30:28.345Z,1.23
2023-04-02T03:33:03.175Z,1.20
2023-04-02T03:35:37.662Z,0.90
2023-04-02T03:38:14.533Z,0.80
2023-04-02T03:40:46.763Z,1.00
2023-04-02T03:43:21.999Z,1.10
2023-04-02T03:45:54.274Z,1.00
2023-04-02T03:48:29.963Z,1.30
2023-04-02T03:51:04.075Z,1.10
2023-04-02T03:53:32.978Z,1.50
2023-04-02T03:56:03.808Z,1.40
2023-04-02T03:58:39.724Z,1.63
2023-04-02T04:01:18.544Z,1.07
2023-04-02T04:03:52.200Z,1.30
2023-04-02T04:06:27.669Z,1.17
2023-04-02T04:08:59.974Z,0.97
2023-04-02T04:11:33.702Z,1.20
2023-04-02T04:14:08.272Z,0.97
2023-04-02T04:16:48.324Z,1.00
2023-04-02T04:19:23.277Z,0.90
2023-04-02T04:21:53.885Z,1.20
2023-04-02T04:24:25.602Z,1.07
2023-04-02T04:26:58.097Z,1.07
2023-04-02T04:29:45.415Z,1.30
2023-04-02T04:32:27.432Z,1.40
2023-04-02T04:35:02.845Z,1.20
2023-04-02T04:37:36.536Z,1.30
2023-04-02T04:40:13.247Z,1.30
2023-04-02T04:42:44.563Z,1.23
2023-04-02T04:45:29.763Z,1.60
2023-04-02T04:48:01.249Z,1.27
2023-04-02T04:50:35.422Z,1.50
2023-04-02T04:53:08.313Z,1.03
2023-04-02T04:55:41.788Z,0.93
2023-04-02T04:58:20.419Z,1.10
2023-04-02T05:01:01.809Z,1.03
2023-04-02T05:03:35.510Z,1.17
2023-04-02T05:06:12.689Z,0.83
2023-04-02T05:08:45.342Z,1.20
2023-04-02T05:11:22.137Z,0.90
2023-04-02T05:13:55.423Z,1.50
2023-04-02T05:16:31.422Z,0.93
2023-04-02T05:19:07.924Z,1.17
2023-04-02T05:21:43.496Z,1.00
2023-04-02T05:24:45.204Z,1.10
2023-04-02T05:27:37.529Z,1.10
2023-04-02T05:30:14.289Z,1.20
2023-04-02T05:32:47.188Z,1.23
2023-04-02T05:35:21.062Z,1.10
2023-04-02T05:37:51.232Z,0.80
2023-04-02T05:40:24.892Z,0.70
2023-04-02T05:42:55.602Z,0.97
2023-04-02T05:45:31.482Z,0.90
2023-04-02T05:48:02.693Z,0.77
2023-04-02T05:50:37.055Z,0.97
2023-04-02T05:53:13.490Z,1.20
2023-04-02T05:55:52.049Z,0.70
2023-04-02T05:58:36.374Z,0.83
2023-04-02T06:01:17.579Z,0.80
2023-04-02T06:03:54.799Z,0.70
2023-04-02T06:06:47.913Z,0.80
2023-04-02T06:09:25.709Z,0.67
2023-04-02T06:12:03.604Z,0.90
2023-04-02T06:14:31.950Z,1.17
2023-04-02T06:17:00.488Z,0.90
2023-04-02T06:19:33.291Z,1.00
2023-04-02T06:22:12.733Z,1.10
2023-04-02T06:24:42.962Z,0.80
2023-04-02T06:27:16.451Z,0.63
2023-04-02T06:29:46.977Z,0.80
2023-04-02T06:32:15.751Z,1.60
2023-04-02T06:34:44.287Z,1.20
2023-04-02T06:37:23.132Z,0.83
2023-04-02T06:39:52.771Z,0.90
2023-04-02T06:42:23.954Z,0.70
2023-04-02T06:44:52.383Z,1.40
2023-04-02T06:47:31.432Z,0.80
2023-04-02T06:50:07.960Z,1.07
2023-04-02T06:52:44.546Z,1.10
2023-04-02T06:55:48.954Z,1.10
2023-04-02T06:58:18.261Z,0.70
2023-04-02T07:00:49.492Z,0.77
2023-04-02T07:03:24.517Z,0.70
2023-04-02T07:05:52.807Z,0.80
2023-04-02T07:08:20.903Z,1.00
2023-04-02T07:10:50.456Z,0.57
2023-04-02T07:13:22.112Z,1.07
2023-04-02T07:15:53.204Z,0.60
2023-04-02T07:18:27.944Z,0.70
2023-04-02T07:20:56.619Z,0.63
2023-04-02T07:23:24.787Z,0.50
2023-04-02T07:25:56.087Z,0.50
2023-04-02T07:28:24.476Z,0.50
2023-04-02T07:30:53.420Z,0.40
2023-04-02T07:33:24.314Z,0.40
2023-04-02T07:35:54.782Z,0.60
2023-04-02T07:38:22.878Z,0.50
2023-04-02T07:40:51.224Z,0.50
2023-04-02T07:43:20.714Z,0.50
2023-04-02T07:45:48.717Z,0.50
2023-04-02T07:48:16.745Z,0.60
2023-04-02T07:50:44.711Z,0.60
2023-04-02T07:53:29.581Z,0.60
2023-04-02T07:55:58.671Z,0.60
2023-04-02T07:58:28.133Z,0.60
2023-04-02T08:00:56.291Z,0.70
2023-04-02T08:03:24.466Z,0.80
2023-04-02T08:05:53.641Z,0.50
2023-04-02T08:08:22.407Z,0.83
2023-04-02T08:10:51.231Z,0.70
2023-04-02T08:13:20.059Z,0.50
2023-04-02T08:15:49.429Z,0.60
2023-04-02T08:18:17.593Z,0.60
2023-04-02T08:20:45.824Z,0.70
2023-04-02T08:23:18.100Z,0.60
2023-04-02T08:25:46.691Z,0.60
2023-04-02T08:28:14.743Z,0.70
2023-04-02T08:30:42.783Z,1.43
2023-04-02T08:33:12.153Z,0.80
2023-04-02T08:35:40.516Z,0.70
2023-04-02T08:38:09.724Z,0.60
2023-04-02T08:40:40.489Z,0.60
2023-04-02T08:43:34.544Z,0.50
2023-04-02T08:46:11.226Z,0.60
2023-04-02T08:48:45.250Z,0.60
2023-04-02T08:51:24.626Z,0.50
2023-04-02T08:53:54.992Z,0.57
2023-04-02T08:56:33.066Z,0.50
2023-04-02T08:59:10.464Z,0.50
2023-04-02T09:01:46.937Z,0.63
2023-04-02T09:04:20.044Z,0.40
2023-04-02T09:06:49.619Z,0.50
2023-04-02T09:09:18.594Z,0.50
2023-04-02T09:11:56.266Z,0.50
2023-04-02T09:14:33.935Z,0.60
2023-04-02T09:17:04.996Z,0.50
2023-04-02T09:19:38.677Z,0.57
2023-04-02T09:22:10.028Z,0.50
2023-04-02T09:24:38.566Z,0.70
2023-04-02T09:27:19.906Z,0.57
2023-04-02T09:29:50.352Z,0.60
2023-04-02T09:32:45.848Z,0.80
2023-04-02T09:35:26.129Z,0.80
2023-04-02T09:38:31.481Z,0.50
2023-04-02T09:41:02.326Z,0.40
2023-04-02T09:43:32.629Z,0.60
2023-04-02T09:46:08.094Z,0.40
2023-04-02T09:48:39.256Z,0.50
2023-04-02T09:51:20.091Z,0.40
2023-04-02T09:53:50.689Z,0.50
2023-04-02T09:56:23.130Z,0.50
2023-04-02T09:59:06.200Z,0.40
2023-04-02T10:01:36.613Z,0.50
2023-04-02T10:04:07.744Z,0.40
2023-04-02T10:06:37.419Z,0.50
2023-04-02T10:09:27.144Z,0.70
2023-04-02T10:11:56.446Z,0.70
2023-04-02T10:14:29.494Z,0.60
2023-04-02T10:17:02.706Z,0.70
2023-04-02T10:19:35.940Z,0.53
2023-04-02T10:22:12.347Z,0.60
2023-04-02T10:24:41.633Z,1.13
2023-04-02T10:27:25.681Z,0.80
2023-04-02T10:30:13.451Z,0.60
2023-04-02T10:32:47.118Z,0.50
